Time;durP1;ratioP1;P1;durP2;ratioP2;P2;SDS_P1;SDS_P2;PMS_P1;PMS_P2;Temp;Humidity;BMP_temperature;BMP_pressure;BME280_temperature;BME280_humidity;BME280_pressure;Samples;Min_cycle;Max_cycle;Signal;HPM_P1;HPM_P2
2021/01/05 00:00:20;;;;;;;37.00;20.38;;;1.90;99.90;;;;;;5073546;28;20184;-71
2021/01/05 00:02:45;;;;;;;34.28;18.40;;;1.90;99.90;;;;;;5072298;28;20416;-71
2021/01/05 00:05:13;;;;;;;37.25;19.33;;;1.90;99.90;;;;;;5072348;28;20017;-71
2021/01/05 00:07:39;;;;;;;37.85;19.67;;;2.00;99.90;;;;;;5073245;28;20016;-71
2021/01/05 00:10:06;;;;;;;38.17;20.80;;;1.90;99.90;;;;;;5072882;28;20037;-71
2021/01/05 00:12:31;;;;;;;39.33;20.60;;;2.00;99.90;;;;;;5073471;28;20027;-71
2021/01/05 00:14:57;;;;;;;38.42;20.83;;;2.00;99.90;;;;;;5071658;28;20369;-71
2021/01/05 00:17:23;;;;;;;38.58;20.77;;;1.90;99.90;;;;;;5074745;28;20409;-71
2021/01/05 00:19:49;;;;;;;39.35;20.67;;;1.90;99.90;;;;;;5058659;28;20021;-71
2021/01/05 00:22:16;;;;;;;42.05;22.05;;;2.00;99.90;;;;;;5076947;28;20063;-71
2021/01/05 00:24:41;;;;;;;38.30;19.58;;;2.00;99.90;;;;;;5075477;28;20116;-71
2021/01/05 00:27:08;;;;;;;36.45;19.88;;;2.00;99.90;;;;;;5076902;28;20478;-71
2021/01/05 00:29:34;;;;;;;39.67;20.45;;;2.00;99.90;;;;;;5076766;28;20031;-71
2021/01/05 00:32:04;;;;;;;35.92;20.23;;;2.00;99.90;;;;;;5075368;28;20020;-71
2021/01/05 00:34:30;;;;;;;37.47;19.35;;;2.00;99.90;;;;;;5076452;28;20541;-71
2021/01/05 00:36:55;;;;;;;39.35;20.33;;;2.00;99.90;;;;;;5075283;28;20051;-71
2021/01/05 00:39:21;;;;;;;36.97;20.25;;;2.00;99.90;;;;;;5075453;28;20091;-71
2021/01/05 00:41:47;;;;;;;37.88;18.20;;;2.00;99.90;;;;;;5076595;28;20050;-71
2021/01/05 00:44:12;;;;;;;41.42;20.63;;;2.00;99.90;;;;;;5076548;28;20042;-71
2021/01/05 00:46:38;;;;;;;40.58;20.23;;;2.00;99.90;;;;;;5076257;28;20017;-71
2021/01/05 00:49:03;;;;;;;37.58;19.85;;;2.00;99.90;;;;;;5076440;28;20445;-71
2021/01/05 00:51:29;;;;;;;38.05;19.73;;;2.00;99.90;;;;;;5075324;28;20031;-71
2021/01/05 00:53:54;;;;;;;43.22;20.30;;;2.00;99.90;;;;;;5076384;28;20024;-71
2021/01/05 00:56:20;;;;;;;40.22;20.00;;;2.00;99.90;;;;;;5076134;28;20047;-71
2021/01/05 00:58:45;;;;;;;38.88;20.13;;;2.00;99.90;;;;;;5076337;28;20434;-71
2021/01/05 01:01:11;;;;;;;36.13;19.67;;;2.00;99.90;;;;;;5076559;28;20052;-71
2021/01/05 01:03:36;;;;;;;39.25;20.95;;;2.00;99.90;;;;;;5074787;28;20024;-71
2021/01/05 01:06:02;;;;;;;39.50;19.98;;;2.00;99.90;;;;;;5076219;28;20021;-71
2021/01/05 01:08:27;;;;;;;41.30;21.13;;;2.00;99.90;;;;;;5076140;28;20028;-71
2021/01/05 01:10:53;;;;;;;42.42;20.58;;;2.00;99.90;;;;;;5075316;28;20028;-71
2021/01/05 01:13:18;;;;;;;37.72;19.77;;;2.10;99.90;;;;;;5075751;28;20017;-71
2021/01/05 01:15:44;;;;;;;37.83;19.88;;;2.00;99.90;;;;;;5074522;28;20450;-71
2021/01/05 01:18:09;;;;;;;41.05;20.20;;;2.00;99.90;;;;;;5075916;28;20027;-71
2021/01/05 01:20:35;;;;;;;35.53;19.38;;;2.00;99.90;;;;;;5075567;28;20399;-71
2021/01/05 01:23:02;;;;;;;37.97;20.80;;;2.00;99.90;;;;;;5074599;28;20017;-71
2021/01/05 01:25:27;;;;;;;40.40;20.05;;;2.00;99.90;;;;;;5074177;28;20020;-71
2021/01/05 01:27:53;;;;;;;39.38;20.08;;;2.10;99.90;;;;;;5075745;28;20511;-71
2021/01/05 01:30:19;;;;;;;47.08;21.08;;;2.10;99.90;;;;;;5075084;28;20016;-71
2021/01/05 01:32:45;;;;;;;36.65;19.27;;;2.10;99.90;;;;;;5074388;28;20012;-71
2021/01/05 01:35:12;;;;;;;37.85;19.67;;;2.10;99.90;;;;;;5075364;28;20104;-71
2021/01/05 01:37:37;;;;;;;38.60;19.80;;;2.10;99.90;;;;;;5073803;28;20025;-71
2021/01/05 01:40:05;;;;;;;35.17;18.90;;;2.00;99.90;;;;;;5075452;28;20199;-71
2021/01/05 01:42:31;;;;;;;38.58;19.10;;;2.00;99.90;;;;;;5075203;28;20136;-71
2021/01/05 01:44:56;;;;;;;35.38;18.98;;;2.00;99.90;;;;;;5075394;28;20056;-71
2021/01/05 01:50:05;;;;;;;41.72;20.05;;;2.00;99.90;;;;;;5112262;27;20104;-71
2021/01/05 01:52:56;;;;;;;37.80;19.58;;;2.00;99.90;;;;;;5111903;28;20542;-71
2021/01/05 01:55:52;;;;;;;38.47;20.58;;;2.00;99.90;;;;;;5111892;28;20016;-71
2021/01/05 01:58:50;;;;;;;38.35;19.55;;;2.10;99.90;;;;;;5111186;28;20028;-71
2021/01/05 02:01:55;;;;;;;43.80;21.02;;;2.10;99.90;;;;;;5111424;28;20030;-71
2021/01/05 02:07:36;;;;;;;45.80;20.38;;;2.00;99.90;;;;;;5112252;27;20355;-69
2021/01/05 02:10:28;;;;;;;44.40;21.65;;;2.10;99.90;;;;;;5111714;28;20442;-70
2021/01/05 02:16:12;;;;;;;43.60;20.90;;;2.00;99.90;;;;;;5112243;27;20700;-69
2021/01/05 02:18:45;;;;;;;44.58;20.35;;;2.00;99.90;;;;;;5111280;28;20024;-71
2021/01/05 02:21:22;;;;;;;43.65;20.40;;;2.00;99.90;;;;;;5110693;28;20024;-69
2021/01/05 02:24:28;;;;;;;40.75;20.33;;;2.00;99.90;;;;;;5111882;28;20032;-70
2021/01/05 02:27:01;;;;;;;45.90;21.30;;;2.00;99.90;;;;;;5111149;28;20031;-70
2021/01/05 02:29:33;;;;;;;40.15;20.63;;;2.00;99.90;;;;;;5110201;28;20024;-71
2021/01/05 02:32:09;;;;;;;42.50;21.38;;;2.10;99.90;;;;;;5111418;28;20027;-71
2021/01/05 02:35:02;;;;;;;40.53;21.02;;;2.00;99.90;;;;;;5111270;28;20376;-69
2021/01/05 02:37:57;;;;;;;44.47;21.95;;;2.00;99.90;;;;;;5109858;28;20429;-69
2021/01/05 02:40:45;;;;;;;44.70;21.65;;;2.10;99.90;;;;;;5111140;28;20020;-69
2021/01/05 02:43:51;;;;;;;42.95;21.42;;;2.10;99.90;;;;;;5110900;28;20470;-71
2021/01/05 02:46:46;;;;;;;47.63;21.70;;;2.00;99.90;;;;;;5110766;28;20438;-71
2021/01/05 02:49:42;;;;;;;44.08;20.83;;;2.00;99.90;;;;;;5111393;28;20020;-71
2021/01/05 02:52:47;;;;;;;40.28;20.10;;;2.10;99.90;;;;;;5110741;28;20027;-71
2021/01/05 02:55:52;;;;;;;48.42;21.33;;;2.00;99.90;;;;;;5110542;28;20476;-71
2021/01/05 02:58:48;;;;;;;43.22;21.23;;;2.00;99.90;;;;;;5110590;28;20107;-71
2021/01/05 03:01:39;;;;;;;45.30;21.73;;;2.00;99.90;;;;;;5110808;28;20460;-69
2021/01/05 03:04:06;;;;;;;40.83;21.42;;;2.10;99.90;;;;;;5110740;28;20026;-69
2021/01/05 03:06:48;;;;;;;41.80;21.25;;;2.10;99.90;;;;;;5110784;28;20401;-70
2021/01/05 03:09:45;;;;;;;43.55;20.60;;;2.00;99.90;;;;;;5111060;28;20487;-71
2021/01/05 03:12:21;;;;;;;44.08;21.02;;;2.00;99.90;;;;;;5109587;28;20028;-71
2021/01/05 03:15:12;;;;;;;44.45;20.42;;;2.00;99.90;;;;;;5091978;28;20044;-71
2021/01/05 03:17:48;;;;;;;42.45;21.30;;;2.00;99.90;;;;;;5110153;28;20560;-71
2021/01/05 03:20:38;;;;;;;40.47;19.52;;;2.00;99.90;;;;;;5110485;28;20401;-70
2021/01/05 03:23:08;;;;;;;46.05;21.30;;;2.00;99.90;;;;;;5110680;28;20019;-71
2021/01/05 03:25:37;;;;;;;41.88;21.17;;;2.10;99.90;;;;;;5104118;28;20093;-71
2021/01/05 03:28:05;;;;;;;44.35;22.10;;;2.00;99.90;;;;;;5095549;28;20028;-71
2021/01/05 03:30:36;;;;;;;43.92;20.65;;;2.00;99.90;;;;;;5096770;28;20350;-71
2021/01/05 03:33:02;;;;;;;46.50;22.42;;;2.00;99.90;;;;;;5096953;28;20027;-71
2021/01/05 03:35:28;;;;;;;44.90;21.25;;;2.00;99.90;;;;;;5096514;28;20028;-69
2021/01/05 03:37:55;;;;;;;50.22;21.85;;;2.00;99.90;;;;;;5096852;28;20055;-69
2021/01/05 03:40:21;;;;;;;46.92;22.15;;;2.00;99.90;;;;;;5096569;28;20384;-71
2021/01/05 03:42:48;;;;;;;48.80;22.80;;;2.00;99.90;;;;;;5096461;28;20110;-71
2021/01/05 03:45:27;;;;;;;44.15;21.52;;;2.00;99.90;;;;;;5096187;28;20380;-71
2021/01/05 03:47:53;;;;;;;47.33;21.90;;;2.00;99.90;;;;;;5096716;28;20023;-70
2021/01/05 03:50:19;;;;;;;49.45;22.90;;;2.00;99.90;;;;;;5096644;28;20020;-70
2021/01/05 03:52:45;;;;;;;50.25;23.85;;;2.00;99.90;;;;;;5095072;28;20377;-70
2021/01/05 03:55:13;;;;;;;47.15;22.02;;;2.00;99.90;;;;;;5095045;28;20027;-71
2021/01/05 03:57:38;;;;;;;54.85;23.83;;;2.00;99.90;;;;;;5094946;28;20078;-71
2021/01/05 04:00:08;;;;;;;50.13;21.38;;;2.00;99.90;;;;;;5096230;28;20027;-71
2021/01/05 04:02:34;;;;;;;49.92;23.05;;;2.00;99.90;;;;;;5094852;28;20016;-70
2021/01/05 04:04:59;;;;;;;53.45;24.05;;;2.00;99.90;;;;;;5096056;28;20024;-71
2021/01/05 04:07:25;;;;;;;51.28;23.25;;;2.00;99.90;;;;;;5096295;28;20035;-70
2021/01/05 04:09:51;;;;;;;49.40;23.08;;;2.10;99.90;;;;;;5096223;28;20024;-71
2021/01/05 04:12:17;;;;;;;51.00;22.58;;;2.10;99.90;;;;;;5096226;28;20016;-70
2021/01/05 04:14:42;;;;;;;52.00;24.80;;;2.00;99.90;;;;;;5095355;28;20040;-71
2021/01/05 04:17:08;;;;;;;50.38;23.33;;;2.00;99.90;;;;;;5095528;28;20024;-71
2021/01/05 04:19:34;;;;;;;54.58;25.50;;;2.00;99.90;;;;;;5095796;28;20028;-71
2021/01/05 04:21:59;;;;;;;51.72;24.80;;;2.00;99.90;;;;;;5096023;28;20024;-71
2021/01/05 04:24:25;;;;;;;53.20;22.70;;;2.00;99.90;;;;;;5095392;28;20043;-71
2021/01/05 04:26:50;;;;;;;55.83;24.27;;;2.10;99.90;;;;;;5095610;28;20020;-71
2021/01/05 04:29:16;;;;;;;51.88;23.15;;;2.10;99.90;;;;;;5095829;28;20099;-71
2021/01/05 04:31:43;;;;;;;59.45;24.75;;;2.00;99.90;;;;;;5095238;28;20016;-71
2021/01/05 04:34:10;;;;;;;56.22;23.35;;;2.10;99.90;;;;;;5094409;28;20026;-71
2021/01/05 04:36:36;;;;;;;52.13;23.17;;;2.10;99.90;;;;;;5094972;28;20478;-70
2021/01/05 04:39:03;;;;;;;53.25;25.10;;;2.10;99.90;;;;;;5095238;28;20032;-70
2021/01/05 04:41:36;;;;;;;52.35;23.73;;;2.10;99.90;;;;;;5095075;28;20020;-69
2021/01/05 04:44:03;;;;;;;52.55;23.08;;;2.10;99.90;;;;;;5095034;28;20024;-69
2021/01/05 04:46:42;;;;;;;58.95;25.30;;;2.10;99.90;;;;;;5095252;28;20050;-69
2021/01/05 04:49:48;;;;;;;58.40;24.60;;;2.10;99.90;;;;;;5094975;28;20023;-69
2021/01/05 04:52:18;;;;;;;49.47;23.45;;;2.10;99.90;;;;;;5094710;28;20439;-69
2021/01/05 04:54:50;;;;;;;56.47;25.67;;;2.10;99.90;;;;;;5093883;28;20046;-69
2021/01/05 05:00:20;;;;;;;55.50;25.08;;;2.10;99.90;;;;;;5112253;27;20408;-69
2021/01/05 05:02:59;;;;;;;53.95;24.15;;;2.10;99.90;;;;;;5110491;28;20028;-69
2021/01/05 05:08:24;;;;;;;63.90;27.10;;;2.10;99.90;;;;;;5112251;27;20101;-71
2021/01/05 05:10:58;;;;;;;61.47;26.38;;;2.10;99.90;;;;;;5111661;28;20016;-69
2021/01/05 05:13:50;;;;;;;59.90;27.40;;;2.10;99.90;;;;;;5111883;28;20042;-70
2021/01/05 05:16:55;;;;;;;64.72;26.35;;;2.10;99.90;;;;;;5144969;27;20028;-71
2021/01/05 05:19:48;;;;;;;60.45;27.27;;;2.10;99.90;;;;;;5111494;27;20055;-71
2021/01/05 05:22:38;;;;;;;63.25;25.63;;;2.10;99.90;;;;;;5111414;28;20465;-71
2021/01/05 05:25:14;;;;;;;63.08;26.05;;;2.10;99.90;;;;;;5111306;28;20035;-70
2021/01/05 05:27:47;;;;;;;64.43;26.17;;;2.10;99.90;;;;;;5111840;28;20137;-71
2021/01/05 05:30:19;;;;;;;62.00;25.55;;;2.10;99.90;;;;;;5111635;28;20024;-71
2021/01/05 05:32:58;;;;;;;61.30;27.65;;;2.10;99.90;;;;;;5110537;28;20028;-71
2021/01/05 05:35:39;;;;;;;63.72;28.02;;;2.10;99.90;;;;;;5111468;28;20031;-71
2021/01/05 05:38:27;;;;;;;61.78;25.92;;;2.10;99.90;;;;;;5111119;28;20031;-70
2021/01/05 05:41:21;;;;;;;63.47;27.48;;;2.10;99.90;;;;;;5111101;28;20069;-71
2021/01/05 05:44:27;;;;;;;66.38;26.27;;;2.10;99.90;;;;;;5110638;28;20086;-71
2021/01/05 05:47:18;;;;;;;70.20;26.85;;;2.10;99.90;;;;;;5111061;28;20028;-70
2021/01/05 05:49:53;;;;;;;66.13;28.20;;;2.10;99.90;;;;;;5110531;28;20092;-71
2021/01/05 05:52:42;;;;;;;61.88;27.17;;;2.10;99.90;;;;;;5111194;28;20023;-71
2021/01/05 05:55:39;;;;;;;64.68;27.63;;;2.10;99.90;;;;;;5111018;28;20357;-71
2021/01/05 05:58:05;;;;;;;66.60;28.25;;;2.10;99.90;;;;;;5110383;28;20047;-71
2021/01/05 06:00:39;;;;;;;61.72;27.75;;;2.10;99.90;;;;;;5109533;28;20054;-70
2021/01/05 06:03:10;;;;;;;61.40;27.08;;;2.10;99.90;;;;;;5110975;28;20099;-71
2021/01/05 06:05:37;;;;;;;64.07;28.27;;;2.10;99.90;;;;;;5110370;28;20096;-71
2021/01/05 06:08:05;;;;;;;62.97;27.58;;;2.10;99.90;;;;;;5110572;28;20034;-71
2021/01/05 06:10:31;;;;;;;70.25;27.95;;;2.10;99.90;;;;;;5110501;28;20016;-72
2021/01/05 06:12:57;;;;;;;64.60;27.73;;;2.10;99.90;;;;;;5110750;28;20380;-71
2021/01/05 06:15:23;;;;;;;70.03;27.63;;;2.10;99.90;;;;;;5110431;28;20453;-71
2021/01/05 06:17:49;;;;;;;60.72;25.90;;;2.10;99.90;;;;;;5104798;28;20040;-71
2021/01/05 06:20:15;;;;;;;70.88;27.63;;;2.10;99.90;;;;;;5095739;28;20423;-71
2021/01/05 06:22:41;;;;;;;71.45;27.83;;;2.10;99.90;;;;;;5096692;28;20382;-71
2021/01/05 06:25:07;;;;;;;64.18;26.70;;;2.10;99.90;;;;;;5096951;28;20064;-71
2021/01/05 06:27:33;;;;;;;74.07;28.95;;;2.10;99.90;;;;;;5096772;28;20060;-71
2021/01/05 06:29:59;;;;;;;67.22;28.95;;;2.10;99.90;;;;;;5095923;28;20106;-70
2021/01/05 06:32:25;;;;;;;75.03;28.90;;;2.10;99.90;;;;;;5095777;28;20442;-70
2021/01/05 06:34:50;;;;;;;72.82;27.27;;;2.10;99.90;;;;;;5095540;28;20054;-70
2021/01/05 06:37:17;;;;;;;72.30;28.73;;;2.10;99.90;;;;;;5094833;28;20370;-70
2021/01/05 06:39:43;;;;;;;73.90;27.58;;;2.10;99.90;;;;;;5093176;28;20460;-69
2021/01/05 06:42:08;;;;;;;76.18;28.40;;;2.10;99.90;;;;;;5094147;28;20035;-71
2021/01/05 06:44:34;;;;;;;68.78;26.85;;;2.10;99.90;;;;;;5096514;28;20020;-70
2021/01/05 06:47:00;;;;;;;69.85;26.90;;;2.10;99.90;;;;;;5096117;28;20373;-69
2021/01/05 06:49:26;;;;;;;66.90;27.73;;;2.10;99.90;;;;;;5096431;28;20028;-69
2021/01/05 06:51:53;;;;;;;74.55;27.88;;;2.10;99.90;;;;;;5095891;28;20027;-69
2021/01/05 06:54:19;;;;;;;69.45;27.60;;;2.10;99.90;;;;;;5096327;28;20016;-69
2021/01/05 06:56:54;;;;;;;62.58;25.58;;;2.20;99.90;;;;;;5095391;28;20129;-69
2021/01/05 06:59:21;;;;;;;66.90;27.55;;;2.10;99.90;;;;;;5096293;28;20434;-68
2021/01/05 07:01:53;;;;;;;69.72;25.00;;;2.10;99.90;;;;;;5095233;28;20067;-69
2021/01/05 07:04:19;;;;;;;60.20;24.90;;;2.10;99.90;;;;;;5096144;28;20114;-69
2021/01/05 07:06:45;;;;;;;67.97;25.98;;;2.10;99.90;;;;;;5095565;28;20123;-69
2021/01/05 07:09:11;;;;;;;66.85;26.50;;;2.20;99.90;;;;;;5095435;28;20095;-68
2021/01/05 07:11:37;;;;;;;64.78;26.92;;;2.10;99.90;;;;;;5095582;28;20077;-69
2021/01/05 07:14:03;;;;;;;63.92;25.85;;;2.10;99.90;;;;;;5095573;28;20054;-69
2021/01/05 07:16:28;;;;;;;60.83;24.90;;;2.10;99.90;;;;;;5095016;28;20477;-69
2021/01/05 07:18:54;;;;;;;69.28;26.25;;;2.10;99.90;;;;;;5095196;28;20032;-69
2021/01/05 07:21:20;;;;;;;59.10;25.77;;;2.10;99.90;;;;;;5095226;28;20024;-69
2021/01/05 07:23:45;;;;;;;64.10;26.63;;;2.10;99.90;;;;;;5095693;28;20028;-69
2021/01/05 07:26:11;;;;;;;66.97;26.60;;;2.10;99.90;;;;;;5095607;28;20099;-69
2021/01/05 07:28:40;;;;;;;66.57;26.08;;;2.10;99.90;;;;;;5095080;28;20069;-69
2021/01/05 07:31:05;;;;;;;64.80;26.40;;;2.10;99.90;;;;;;5091807;28;20028;-70
2021/01/05 07:33:31;;;;;;;64.63;26.05;;;2.10;99.90;;;;;;5084634;28;20376;-70
2021/01/05 07:35:58;;;;;;;65.30;26.88;;;2.10;99.90;;;;;;5094431;28;20028;-70
2021/01/05 07:38:24;;;;;;;66.03;25.60;;;2.10;99.90;;;;;;5094797;28;20039;-70
2021/01/05 07:40:49;;;;;;;65.70;27.98;;;2.10;99.90;;;;;;5094925;28;20028;-70
2021/01/05 07:43:15;;;;;;;61.55;26.23;;;2.10;99.90;;;;;;5094679;28;20105;-68
2021/01/05 07:45:40;;;;;;;67.85;27.33;;;2.10;99.90;;;;;;5094358;28;20051;-68
2021/01/05 07:48:06;;;;;;;64.50;25.70;;;2.10;99.90;;;;;;5094662;28;20023;-68
2021/01/05 07:50:32;;;;;;;64.32;26.65;;;2.10;99.90;;;;;;5094640;28;20099;-69
2021/01/05 07:52:58;;;;;;;64.32;25.92;;;2.10;99.90;;;;;;5093600;28;20024;-70
2021/01/05 07:55:25;;;;;;;65.25;27.45;;;2.10;99.90;;;;;;5094738;28;20419;-70
2021/01/05 07:57:52;;;;;;;69.35;26.73;;;2.10;99.90;;;;;;5094310;28;20036;-71
2021/01/05 08:00:20;;;;;;;61.33;26.02;;;2.10;99.90;;;;;;5094778;28;20036;-70
2021/01/05 08:02:46;;;;;;;64.65;27.30;;;2.10;99.90;;;;;;5092071;28;20040;-70
2021/01/05 08:05:14;;;;;;;64.82;25.23;;;2.10;99.90;;;;;;5094229;28;20095;-70
2021/01/05 08:07:40;;;;;;;67.88;27.05;;;2.10;99.90;;;;;;5093744;28;20496;-70
2021/01/05 08:10:07;;;;;;;73.15;26.65;;;2.10;99.90;;;;;;5094119;28;20028;-71
2021/01/05 08:12:33;;;;;;;73.47;25.48;;;2.10;99.90;;;;;;5094557;28;20020;-70
2021/01/05 08:14:58;;;;;;;65.75;26.70;;;2.20;99.90;;;;;;5094175;28;20021;-70
2021/01/05 08:17:24;;;;;;;72.47;28.10;;;2.10;99.90;;;;;;5094005;28;20032;-70
2021/01/05 08:19:49;;;;;;;59.25;24.40;;;2.10;99.90;;;;;;5093850;28;20028;-71
2021/01/05 08:22:16;;;;;;;64.53;25.20;;;2.20;99.90;;;;;;5058815;28;20465;-71
2021/01/05 08:24:42;;;;;;;68.47;25.20;;;2.20;99.90;;;;;;5093602;28;20031;-71
2021/01/05 08:27:10;;;;;;;71.95;25.85;;;2.20;99.90;;;;;;5089479;28;20024;-71
2021/01/05 08:29:36;;;;;;;63.55;26.10;;;2.20;99.90;;;;;;5093452;28;20038;-71
2021/01/05 08:32:03;;;;;;;64.80;26.50;;;2.20;99.90;;;;;;5092535;28;20073;-68
2021/01/05 08:34:29;;;;;;;63.30;25.52;;;2.20;99.90;;;;;;5093175;28;20020;-69
2021/01/05 08:36:57;;;;;;;65.60;26.15;;;2.20;99.90;;;;;;5093139;28;20111;-71
2021/01/05 08:39:22;;;;;;;64.80;24.98;;;2.20;99.90;;;;;;5093903;28;20376;-69
2021/01/05 08:41:52;;;;;;;65.60;26.77;;;2.20;99.90;;;;;;5093454;28;20103;-69
2021/01/05 08:44:18;;;;;;;62.85;25.75;;;2.20;99.90;;;;;;5093573;28;20024;-69
2021/01/05 08:46:43;;;;;;;72.40;27.35;;;2.30;99.90;;;;;;5091566;28;20042;-70
2021/01/05 08:49:09;;;;;;;59.50;25.25;;;2.30;99.90;;;;;;5092812;28;20031;-71
2021/01/05 08:51:35;;;;;;;64.95;25.83;;;2.30;99.90;;;;;;5093350;28;20031;-71
2021/01/05 08:54:00;;;;;;;60.55;25.05;;;2.30;99.90;;;;;;5092939;28;20453;-70
2021/01/05 08:56:27;;;;;;;63.72;26.33;;;2.30;99.90;;;;;;5092848;28;20047;-70
2021/01/05 08:58:54;;;;;;;62.40;25.50;;;2.30;99.90;;;;;;5092234;28;20101;-70
2021/01/05 09:01:19;;;;;;;69.80;26.55;;;2.30;99.90;;;;;;5092290;28;20073;-68
2021/01/05 09:03:45;;;;;;;62.42;26.13;;;2.30;99.90;;;;;;5092425;28;20500;-71
2021/01/05 09:06:12;;;;;;;63.50;25.30;;;2.30;99.90;;;;;;5092959;28;20044;-70
2021/01/05 09:08:38;;;;;;;64.57;26.05;;;2.30;99.90;;;;;;5093283;28;20024;-71
2021/01/05 09:11:08;;;;;;;69.30;25.38;;;2.30;99.90;;;;;;5092866;28;20469;-70
2021/01/05 09:13:34;;;;;;;62.88;25.35;;;2.40;99.90;;;;;;5092070;28;20021;-71
2021/01/05 09:15:59;;;;;;;64.80;25.58;;;2.30;99.90;;;;;;5091963;28;20359;-71
2021/01/05 09:18:25;;;;;;;68.30;25.50;;;2.40;99.90;;;;;;5093013;28;20028;-71
2021/01/05 09:20:52;;;;;;;62.95;25.42;;;2.30;99.90;;;;;;5092967;28;20024;-70
2021/01/05 09:23:22;;;;;;;65.90;25.15;;;2.40;99.90;;;;;;5092996;28;20141;-70
2021/01/05 09:25:50;;;;;;;61.83;24.50;;;2.40;99.90;;;;;;5093044;28;20016;-70
2021/01/05 09:28:15;;;;;;;64.45;25.75;;;2.40;99.90;;;;;;5093272;28;20082;-70
2021/01/05 09:30:41;;;;;;;66.60;26.23;;;2.40;99.90;;;;;;5093088;28;20465;-71
2021/01/05 09:33:06;;;;;;;63.42;25.98;;;2.40;99.90;;;;;;5091763;28;20086;-69
2021/01/05 09:35:33;;;;;;;66.88;25.77;;;2.40;99.90;;;;;;5092731;28;20048;-69
2021/01/05 09:37:59;;;;;;;62.97;25.77;;;2.40;99.90;;;;;;5092545;28;20107;-69
2021/01/05 09:40:25;;;;;;;68.45;25.27;;;2.40;99.90;;;;;;5092532;28;20099;-70
2021/01/05 09:42:50;;;;;;;67.80;26.67;;;2.50;99.90;;;;;;5092667;28;20445;-70
2021/01/05 09:45:16;;;;;;;65.25;26.55;;;2.40;99.90;;;;;;5092167;28;20387;-70
2021/01/05 09:47:42;;;;;;;68.07;26.70;;;2.40;99.90;;;;;;5092637;28;20024;-69
2021/01/05 09:50:08;;;;;;;67.13;27.17;;;2.50;99.90;;;;;;5092634;28;20016;-70
2021/01/05 09:52:36;;;;;;;69.18;26.83;;;2.50;99.90;;;;;;5092865;28;20035;-69
2021/01/05 09:55:04;;;;;;;69.15;26.20;;;2.50;99.90;;;;;;5095504;28;20099;-69
2021/01/05 09:57:30;;;;;;;72.15;25.77;;;2.60;99.90;;;;;;5096691;28;20165;-70
2021/01/05 09:59:55;;;;;;;68.13;26.65;;;2.60;99.90;;;;;;5096054;28;20103;-70
2021/01/05 10:02:21;;;;;;;67.20;27.80;;;2.60;99.90;;;;;;5096094;28;20024;-71
2021/01/05 10:04:46;;;;;;;73.63;27.60;;;2.50;99.90;;;;;;5096351;28;20033;-71
2021/01/05 10:07:12;;;;;;;69.78;27.08;;;2.50;99.90;;;;;;5096112;28;20049;-71
2021/01/05 10:09:38;;;;;;;67.47;25.75;;;2.50;99.90;;;;;;5094385;28;20050;-70
2021/01/05 10:12:04;;;;;;;76.38;28.83;;;2.50;99.90;;;;;;5096778;28;20466;-70
2021/01/05 10:14:30;;;;;;;76.18;29.38;;;2.50;99.90;;;;;;5095986;28;20103;-69
2021/01/05 10:16:56;;;;;;;82.03;29.98;;;2.40;99.90;;;;;;5094905;28;20052;-70
2021/01/05 10:19:23;;;;;;;74.72;28.70;;;2.40;99.90;;;;;;5096203;28;20028;-69
2021/01/05 10:21:49;;;;;;;79.13;29.90;;;2.50;99.90;;;;;;5096170;28;20031;-71
2021/01/05 10:24:15;;;;;;;77.93;29.85;;;2.40;99.90;;;;;;5094879;28;20031;-71
2021/01/05 10:26:48;;;;;;;76.82;26.90;;;2.50;99.90;;;;;;5095904;28;20111;-72
2021/01/05 10:29:13;;;;;;;75.63;28.05;;;2.40;99.90;;;;;;5095277;28;20020;-72
2021/01/05 10:31:41;;;;;;;76.90;29.20;;;2.50;99.90;;;;;;5095416;28;20036;-71
2021/01/05 10:34:07;;;;;;;74.40;28.90;;;2.50;99.90;;;;;;5095912;28;20024;-72
2021/01/05 10:36:33;;;;;;;76.75;28.38;;;2.50;99.90;;;;;;5095807;28;20028;-72
2021/01/05 10:38:59;;;;;;;71.70;28.33;;;2.50;99.90;;;;;;5095367;28;20024;-71
2021/01/05 10:41:42;;;;;;;74.72;29.23;;;2.50;99.90;;;;;;5096099;28;20381;-70
2021/01/05 10:44:09;;;;;;;78.63;28.17;;;2.50;99.90;;;;;;5094703;28;20035;-70
2021/01/05 10:46:35;;;;;;;76.97;30.00;;;2.50;99.90;;;;;;5095779;28;20034;-70
2021/01/05 10:49:02;;;;;;;76.57;29.15;;;2.60;99.90;;;;;;5094535;28;20459;-71
2021/01/05 10:51:27;;;;;;;74.65;28.90;;;2.50;99.90;;;;;;5095415;28;20020;-71
2021/01/05 10:53:53;;;;;;;72.38;28.63;;;2.60;99.90;;;;;;5077573;28;20027;-70
2021/01/05 10:56:19;;;;;;;72.00;28.52;;;2.60;99.90;;;;;;5095812;28;20397;-70
2021/01/05 10:58:45;;;;;;;59.88;25.45;;;2.60;99.90;;;;;;5095747;28;20123;-70
2021/01/05 11:01:11;;;;;;;67.00;27.20;;;2.60;99.90;;;;;;5095634;28;20103;-71
2021/01/05 11:03:36;;;;;;;64.90;27.13;;;2.70;99.90;;;;;;5094910;28;20108;-72
2021/01/05 11:06:04;;;;;;;67.72;28.73;;;2.70;99.90;;;;;;5094606;28;20051;-71
2021/01/05 11:08:30;;;;;;;66.50;28.15;;;2.70;99.90;;;;;;5094916;28;20369;-71
2021/01/05 11:10:56;;;;;;;70.55;28.10;;;2.70;99.90;;;;;;5093667;28;20028;-71
2021/01/05 11:13:22;;;;;;;72.50;28.77;;;2.70;99.90;;;;;;5094774;28;20028;-71
2021/01/05 11:15:48;;;;;;;71.78;28.60;;;2.70;99.90;;;;;;5094298;28;20016;-71
2021/01/05 11:18:14;;;;;;;77.00;29.67;;;2.70;99.90;;;;;;5094488;28;20039;-72
2021/01/05 11:20:41;;;;;;;65.25;29.00;;;2.60;99.90;;;;;;5094654;28;20161;-72
2021/01/05 11:23:08;;;;;;;70.53;28.63;;;2.60;99.90;;;;;;5092298;28;20068;-72
2021/01/05 11:25:34;;;;;;;68.82;28.00;;;2.60;99.90;;;;;;5094672;28;20023;-72
2021/01/05 11:28:00;;;;;;;75.38;30.05;;;2.60;99.90;;;;;;5094145;28;20035;-72
2021/01/05 11:30:26;;;;;;;69.53;28.83;;;2.60;99.90;;;;;;5094278;28;20012;-71
2021/01/05 11:32:52;;;;;;;71.53;28.95;;;2.70;99.90;;;;;;5094540;28;20385;-72
2021/01/05 11:35:19;;;;;;;67.50;28.17;;;2.60;99.90;;;;;;5094177;28;20024;-70
2021/01/05 11:37:44;;;;;;;55.90;26.50;;;2.60;99.90;;;;;;5094159;28;20499;-70
2021/01/05 11:40:11;;;;;;;60.08;26.65;;;2.70;99.90;;;;;;5094092;28;20099;-71
2021/01/05 11:42:38;;;;;;;59.78;26.08;;;2.70;99.90;;;;;;5093469;28;20051;-71
2021/01/05 11:45:05;;;;;;;62.00;26.90;;;2.70;99.90;;;;;;5093721;28;20020;-72
2021/01/05 11:47:31;;;;;;;55.22;24.63;;;2.70;99.90;;;;;;5075254;28;20062;-71
2021/01/05 11:49:57;;;;;;;54.88;24.20;;;2.70;99.90;;;;;;5093537;28;20051;-71
2021/01/05 11:52:24;;;;;;;47.08;23.25;;;2.70;99.90;;;;;;5093794;28;20032;-71
2021/01/05 11:54:50;;;;;;;52.33;23.83;;;2.70;99.90;;;;;;5091432;28;20020;-71
2021/01/05 11:57:15;;;;;;;59.08;25.05;;;2.70;99.90;;;;;;5092751;28;20016;-71
2021/01/05 11:59:41;;;;;;;54.67;24.42;;;2.70;99.90;;;;;;5093809;28;20027;-71
2021/01/05 12:02:07;;;;;;;55.45;25.08;;;2.70;99.90;;;;;;5092736;28;20040;-71
2021/01/05 12:04:32;;;;;;;59.40;26.75;;;2.70;99.90;;;;;;5092917;28;20024;-71
2021/01/05 12:06:58;;;;;;;59.08;26.50;;;2.70;99.90;;;;;;5091434;28;20413;-71
2021/01/05 12:09:26;;;;;;;55.33;25.58;;;2.70;99.90;;;;;;5093485;28;20082;-72
2021/01/05 12:11:58;;;;;;;58.05;24.75;;;2.70;99.90;;;;;;5093037;28;20021;-71
2021/01/05 12:14:24;;;;;;;53.25;24.10;;;2.70;99.90;;;;;;5089757;28;20012;-71
2021/01/05 12:16:51;;;;;;;58.22;25.58;;;2.70;99.90;;;;;;5092778;28;20046;-72
2021/01/05 12:19:21;;;;;;;56.47;25.20;;;2.80;99.90;;;;;;5093404;28;20031;-72
2021/01/05 12:21:47;;;;;;;59.20;25.77;;;2.80;99.90;;;;;;5093331;28;20469;-72
2021/01/05 12:24:17;;;;;;;59.65;25.13;;;2.70;99.90;;;;;;5094151;28;20089;-72
2021/01/05 12:26:43;;;;;;;59.00;26.63;;;2.70;99.90;;;;;;5093842;28;20024;-72
2021/01/05 12:29:14;;;;;;;60.80;24.75;;;2.70;99.90;;;;;;5093450;28;20444;-72
2021/01/05 12:31:44;;;;;;;58.17;25.23;;;2.70;99.90;;;;;;5091832;28;20027;-71
2021/01/05 12:34:11;;;;;;;60.65;26.83;;;2.70;99.90;;;;;;5093939;28;20024;-72
2021/01/05 12:36:38;;;;;;;58.90;25.33;;;2.70;99.90;;;;;;5093817;28;20028;-72
2021/01/05 12:39:06;;;;;;;65.72;26.92;;;2.70;99.90;;;;;;5093635;28;20028;-72
2021/01/05 12:41:34;;;;;;;57.97;25.65;;;2.70;99.90;;;;;;5093871;28;20488;-72
2021/01/05 12:44:01;;;;;;;56.67;26.13;;;2.70;99.90;;;;;;5092318;28;20028;-71
2021/01/05 12:46:29;;;;;;;56.33;25.58;;;2.70;99.90;;;;;;5093598;28;20499;-70
2021/01/05 12:48:55;;;;;;;54.72;25.60;;;2.70;99.90;;;;;;5093796;28;20099;-70
2021/01/05 12:51:30;;;;;;;55.47;24.83;;;2.80;99.90;;;;;;5093661;28;20056;-71
2021/01/05 12:53:56;;;;;;;54.45;24.40;;;2.70;99.90;;;;;;5093509;28;20028;-69
2021/01/05 12:56:22;;;;;;;61.22;27.30;;;2.70;99.90;;;;;;5093096;28;20385;-71
2021/01/05 12:58:48;;;;;;;60.63;27.15;;;2.80;99.90;;;;;;5093510;28;20028;-70
2021/01/05 13:01:16;;;;;;;54.90;25.70;;;2.90;99.90;;;;;;5093480;28;20024;-70
2021/01/05 13:03:42;;;;;;;63.55;26.88;;;2.80;99.90;;;;;;5093140;28;20020;-69